Time;durP1;ratioP1;P1;durP2;ratioP2;P2;SDS_P1;SDS_P2;PMS_P1;PMS_P2;Temp;Humidity;BMP_temperature;BMP_pressure;BME280_temperature;BME280_humidity;BME280_pressure;Samples;Min_cycle;Max_cycle;Signal;HPM_P1;HPM_P2
2021/12/28 00:01:00;;;;;;;12.63;11.43;;;6.50;99.90;;;;;;5012408;28;20172;-66
2021/12/28 00:03:27;;;;;;;12.73;11.47;;;6.40;99.90;;;;;;5011681;28;20183;-66
2021/12/28 00:05:52;;;;;;;13.23;11.63;;;6.40;99.90;;;;;;5012280;28;20176;-66
2021/12/28 00:08:19;;;;;;;11.53;10.50;;;6.30;99.90;;;;;;5011988;28;20250;-67
2021/12/28 00:10:46;;;;;;;12.23;11.13;;;6.30;99.90;;;;;;5012143;28;20342;-66
2021/12/28 00:13:11;;;;;;;12.00;10.80;;;6.30;99.90;;;;;;5011723;28;20188;-65
2021/12/28 00:18:25;;;;;;;11.53;10.50;;;6.30;99.90;;;;;;5011918;28;20180;-65
2021/12/28 00:20:53;;;;;;;12.33;11.23;;;6.30;99.90;;;;;;5011092;28;20183;-65
2021/12/28 00:23:27;;;;;;;11.47;10.43;;;6.30;99.90;;;;;;5011285;28;20164;-65
2021/12/28 00:25:54;;;;;;;12.97;11.57;;;6.30;99.90;;;;;;5012032;28;20171;-65
2021/12/28 00:28:21;;;;;;;14.17;11.33;;;6.20;99.90;;;;;;5011742;28;20172;-65
2021/12/28 00:30:47;;;;;;;11.80;10.70;;;6.20;99.90;;;;;;5011852;28;20202;-66
2021/12/28 00:33:14;;;;;;;11.30;9.93;;;6.20;99.90;;;;;;5011323;28;20199;-67
2021/12/28 00:35:41;;;;;;;11.60;10.60;;;6.30;99.90;;;;;;5011711;28;20302;-66
2021/12/28 00:38:09;;;;;;;11.93;10.93;;;6.30;99.90;;;;;;5011551;28;20267;-65
2021/12/28 00:40:36;;;;;;;11.77;10.57;;;6.30;99.90;;;;;;5011702;28;20184;-66
2021/12/28 00:43:02;;;;;;;12.00;10.90;;;6.30;99.90;;;;;;5011317;28;20196;-67
2021/12/28 00:45:28;;;;;;;12.60;11.37;;;6.30;99.90;;;;;;5011717;28;20172;-67
2021/12/28 00:47:54;;;;;;;12.60;11.33;;;6.30;99.90;;;;;;5011244;28;20223;-67
2021/12/28 00:50:21;;;;;;;12.77;11.17;;;6.20;99.90;;;;;;5012214;28;20704;-67
2021/12/28 00:52:47;;;;;;;11.47;10.37;;;6.20;99.90;;;;;;5011489;28;20207;-67
2021/12/28 00:55:14;;;;;;;11.57;10.47;;;6.30;99.90;;;;;;5011794;28;20204;-67
2021/12/28 00:57:40;;;;;;;13.37;12.10;;;6.30;99.90;;;;;;5010981;28;20195;-65
2021/12/28 01:00:10;;;;;;;13.27;11.03;;;6.30;99.90;;;;;;5010660;28;20192;-66
2021/12/28 01:02:36;;;;;;;11.13;10.10;;;6.30;99.90;;;;;;5010890;28;20214;-65
2021/12/28 01:05:02;;;;;;;11.97;10.83;;;6.30;99.90;;;;;;5011551;28;20216;-66
2021/12/28 01:07:28;;;;;;;12.17;10.97;;;6.30;99.90;;;;;;5011104;28;20211;-66
2021/12/28 01:09:54;;;;;;;10.50;9.50;;;6.40;99.90;;;;;;5012595;28;20192;-66
2021/12/28 01:12:20;;;;;;;11.10;10.07;;;6.40;99.90;;;;;;5014895;28;20183;-66
2021/12/28 01:14:45;;;;;;;11.70;10.53;;;6.40;99.90;;;;;;5015298;28;20210;-66
2021/12/28 01:17:11;;;;;;;11.63;10.73;;;6.40;99.90;;;;;;5014997;28;20673;-66
2021/12/28 01:19:37;;;;;;;12.37;11.27;;;6.40;99.90;;;;;;5014756;28;20231;-66
2021/12/28 01:22:03;;;;;;;11.33;10.23;;;6.50;99.90;;;;;;5014949;28;20168;-66
2021/12/28 01:24:30;;;;;;;11.27;10.37;;;6.50;99.90;;;;;;5014751;28;20187;-67
2021/12/28 01:26:57;;;;;;;11.77;10.77;;;6.50;99.90;;;;;;5015273;28;20665;-66
2021/12/28 01:29:23;;;;;;;12.90;10.23;;;6.50;99.90;;;;;;5014887;28;20202;-65
2021/12/28 01:31:50;;;;;;;11.83;10.83;;;6.50;99.90;;;;;;5014990;28;20206;-66
2021/12/28 01:34:16;;;;;;;12.23;11.03;;;6.50;99.90;;;;;;5014759;28;20212;-65
2021/12/28 01:36:42;;;;;;;11.13;10.07;;;6.50;99.90;;;;;;5015001;28;20203;-65
2021/12/28 01:39:08;;;;;;;11.10;9.97;;;6.50;99.90;;;;;;5014740;28;20287;-66
2021/12/28 01:41:34;;;;;;;12.73;11.60;;;6.50;99.90;;;;;;5013555;28;20168;-67
2021/12/28 01:44:04;;;;;;;11.97;10.13;;;6.50;99.90;;;;;;5014199;28;20176;-67
2021/12/28 01:46:30;;;;;;;11.47;10.37;;;6.50;99.90;;;;;;5014409;28;20629;-67
2021/12/28 01:48:56;;;;;;;11.57;10.33;;;6.50;99.90;;;;;;5014435;28;20218;-68
2021/12/28 01:51:23;;;;;;;12.47;10.73;;;6.50;99.90;;;;;;5014677;28;20172;-66
2021/12/28 01:53:52;;;;;;;10.70;9.70;;;6.50;99.90;;;;;;5014184;28;20168;-66
2021/12/28 01:56:21;;;;;;;10.53;9.60;;;6.60;99.90;;;;;;5014657;28;20277;-67
2021/12/28 01:58:48;;;;;;;9.93;9.23;;;6.60;99.90;;;;;;5014211;28;20720;-67
2021/12/28 02:01:14;;;;;;;10.33;9.33;;;6.50;99.90;;;;;;5014418;28;20172;-67
2021/12/28 02:03:42;;;;;;;10.30;9.50;;;6.50;99.90;;;;;;5014281;28;20170;-67
2021/12/28 02:06:08;;;;;;;11.77;8.80;;;6.60;99.90;;;;;;5014136;28;20191;-67
2021/12/28 02:08:34;;;;;;;10.57;9.63;;;6.60;99.90;;;;;;5014334;28;20182;-68
2021/12/28 02:11:00;;;;;;;11.37;9.50;;;6.60;99.90;;;;;;5014118;28;20179;-66
2021/12/28 02:13:27;;;;;;;9.17;8.57;;;6.60;99.90;;;;;;5013760;28;20183;-66
2021/12/28 02:15:56;;;;;;;9.47;8.77;;;6.60;99.90;;;;;;5014038;28;20200;-66
2021/12/28 02:18:23;;;;;;;9.10;8.10;;;6.70;99.90;;;;;;5013745;28;20215;-66
2021/12/28 02:20:50;;;;;;;15.80;9.43;;;6.60;99.90;;;;;;5014061;28;20168;-66
2021/12/28 02:23:16;;;;;;;11.50;9.80;;;6.70;99.90;;;;;;5013059;28;20172;-66
2021/12/28 02:25:42;;;;;;;9.87;9.07;;;6.70;99.90;;;;;;5014297;28;20234;-66
2021/12/28 02:28:10;;;;;;;9.87;8.87;;;6.70;99.90;;;;;;5013974;28;20172;-66
2021/12/28 02:30:38;;;;;;;11.30;9.23;;;6.80;99.90;;;;;;5012884;28;20257;-66
2021/12/28 02:33:05;;;;;;;8.77;8.17;;;6.80;99.90;;;;;;5013718;28;20176;-66
2021/12/28 02:35:31;;;;;;;9.60;8.80;;;6.80;99.90;;;;;;5013613;28;20200;-66
2021/12/28 02:37:56;;;;;;;10.60;9.33;;;6.90;99.90;;;;;;5013582;28;20176;-66
2021/12/28 02:40:25;;;;;;;11.60;9.30;;;6.90;99.90;;;;;;5013284;28;20196;-66
2021/12/28 02:42:52;;;;;;;10.03;9.03;;;7.00;99.90;;;;;;5013456;28;20188;-66
2021/12/28 02:45:30;;;;;;;11.13;8.63;;;7.10;99.90;;;;;;5013560;28;20679;-65
2021/12/28 02:47:56;;;;;;;9.80;8.90;;;7.10;99.90;;;;;;5013698;28;20172;-66
2021/12/28 02:50:26;;;;;;;10.27;9.40;;;7.20;99.90;;;;;;5013150;28;20216;-65
2021/12/28 02:52:52;;;;;;;15.30;9.40;;;7.20;99.90;;;;;;5013332;28;20176;-68
2021/12/28 02:55:20;;;;;;;11.97;8.73;;;7.30;99.90;;;;;;5013314;28;20563;-68
2021/12/28 02:58:11;;;;;;;11.70;10.53;;;7.30;99.90;;;;;;5013170;28;20540;-68
2021/12/28 03:00:50;;;;;;;11.60;10.50;;;7.40;99.90;;;;;;5013055;28;20220;-68
2021/12/28 03:03:18;;;;;;;11.10;9.73;;;7.40;99.90;;;;;;5013035;28;20176;-68
2021/12/28 03:05:46;;;;;;;12.47;8.80;;;7.40;99.90;;;;;;5013402;28;20173;-65
2021/12/28 03:08:14;;;;;;;10.07;9.07;;;7.50;99.90;;;;;;5012946;28;20282;-66
2021/12/28 03:10:41;;;;;;;9.60;8.70;;;7.50;99.90;;;;;;5013113;28;20195;-67
2021/12/28 03:13:08;;;;;;;8.97;8.07;;;7.50;99.90;;;;;;5012849;28;20567;-65
2021/12/28 03:15:34;;;;;;;12.33;8.13;;;7.50;99.90;;;;;;5012900;28;20203;-66
2021/12/28 03:18:00;;;;;;;9.80;8.93;;;7.60;99.90;;;;;;5013167;28;20672;-65
2021/12/28 03:20:27;;;;;;;8.63;8.03;;;7.60;99.90;;;;;;5012845;28;20191;-66
2021/12/28 03:22:52;;;;;;;9.40;8.27;;;7.60;99.90;;;;;;5012772;28;20180;-67
2021/12/28 03:25:18;;;;;;;19.37;8.67;;;7.60;99.90;;;;;;5012978;28;20642;-66
2021/12/28 03:27:44;;;;;;;8.43;7.63;;;7.60;99.90;;;;;;5012656;28;20267;-67
2021/12/28 03:30:13;;;;;;;13.13;9.20;;;7.70;99.90;;;;;;5012830;28;20215;-65
2021/12/28 03:32:39;;;;;;;8.47;7.87;;;7.70;99.90;;;;;;5012050;28;20180;-65
2021/12/28 03:35:08;;;;;;;11.13;8.23;;;7.70;99.90;;;;;;5012130;28;20244;-66
2021/12/28 03:37:34;;;;;;;12.70;8.37;;;7.80;99.90;;;;;;5012700;28;20176;-66
2021/12/28 03:40:02;;;;;;;8.47;7.67;;;7.80;99.90;;;;;;5012601;28;20199;-65
2021/12/28 03:42:28;;;;;;;12.10;8.53;;;7.80;99.90;;;;;;5012091;28;20630;-65
2021/12/28 03:44:54;;;;;;;8.17;7.67;;;7.90;99.90;;;;;;5012519;28;20187;-66
2021/12/28 03:47:19;;;;;;;13.60;8.80;;;7.90;99.90;;;;;;5012133;28;20187;-66
2021/12/28 03:49:45;;;;;;;11.70;9.50;;;7.90;99.90;;;;;;5012153;28;20262;-66
2021/12/28 03:52:11;;;;;;;9.07;8.37;;;7.90;99.90;;;;;;5010653;28;20179;-67
2021/12/28 03:54:36;;;;;;;9.97;8.63;;;7.90;99.90;;;;;;5012435;28;20670;-65
2021/12/28 03:57:03;;;;;;;9.90;8.07;;;7.90;99.90;;;;;;5012274;28;20182;-66
2021/12/28 03:59:29;;;;;;;8.83;7.90;;;7.90;99.90;;;;;;5012369;28;20184;-64
2021/12/28 04:01:55;;;;;;;10.90;7.87;;;7.90;99.90;;;;;;5011774;28;20180;-70
2021/12/28 04:04:21;;;;;;;10.73;7.83;;;7.90;99.90;;;;;;5011941;28;20187;-66
2021/12/28 04:06:47;;;;;;;13.57;7.83;;;7.90;99.90;;;;;;5012300;28;20176;-68
2021/12/28 04:09:19;;;;;;;9.20;8.30;;;7.90;99.90;;;;;;5012091;28;20554;-65
2021/12/28 04:11:45;;;;;;;10.63;8.10;;;7.90;99.90;;;;;;5012175;28;20183;-67
2021/12/28 04:14:11;;;;;;;9.37;8.30;;;7.90;99.90;;;;;;5011485;28;20230;-65
2021/12/28 04:16:37;;;;;;;15.97;9.17;;;8.00;99.90;;;;;;4992479;28;20181;-66
2021/12/28 04:19:04;;;;;;;10.07;9.00;;;8.00;99.90;;;;;;4997095;28;20207;-65
2021/12/28 04:21:31;;;;;;;11.70;8.30;;;8.00;99.90;;;;;;5011498;28;20264;-65
2021/12/28 04:23:57;;;;;;;15.10;9.70;;;8.00;99.90;;;;;;5011573;28;20178;-66
2021/12/28 04:26:24;;;;;;;15.60;9.60;;;8.10;99.90;;;;;;5012058;28;20254;-67
2021/12/28 04:28:50;;;;;;;15.67;10.00;;;8.10;99.90;;;;;;5011922;28;20188;-66
2021/12/28 04:31:16;;;;;;;12.20;11.10;;;8.10;99.90;;;;;;5011866;28;20172;-67
2021/12/28 04:33:42;;;;;;;17.63;11.60;;;8.10;99.90;;;;;;5011341;28;20210;-67
2021/12/28 04:36:10;;;;;;;11.73;10.53;;;8.10;99.90;;;;;;5011946;28;20207;-66
2021/12/28 04:38:37;;;;;;;11.43;10.73;;;8.10;99.90;;;;;;5011488;28;20177;-66
2021/12/28 04:41:04;;;;;;;15.07;13.57;;;8.10;99.90;;;;;;5011712;28;20604;-66
2021/12/28 04:43:30;;;;;;;13.50;12.13;;;8.10;99.90;;;;;;5010850;28;20176;-66
2021/12/28 04:45:56;;;;;;;13.97;11.83;;;8.20;99.90;;;;;;5011337;28;20179;-66
2021/12/28 04:48:21;;;;;;;12.70;11.70;;;8.20;99.90;;;;;;5011187;28;20649;-66
2021/12/28 04:50:47;;;;;;;13.27;12.20;;;8.20;99.90;;;;;;5011712;28;20538;-66
2021/12/28 04:53:13;;;;;;;20.03;12.83;;;8.20;99.90;;;;;;5011261;28;20180;-66
2021/12/28 04:55:45;;;;;;;13.60;12.20;;;8.20;99.90;;;;;;5011475;28;20561;-66
2021/12/28 04:58:11;;;;;;;14.83;13.60;;;8.30;99.90;;;;;;5011465;28;20176;-66
2021/12/28 05:00:37;;;;;;;17.63;15.73;;;8.30;99.90;;;;;;5011240;28;20188;-65
2021/12/28 05:03:04;;;;;;;14.33;13.13;;;8.30;99.90;;;;;;5010233;28;20185;-66
2021/12/28 05:05:30;;;;;;;17.67;11.47;;;8.30;99.90;;;;;;5011367;28;20176;-65
2021/12/28 05:07:56;;;;;;;10.07;9.30;;;8.30;99.90;;;;;;5011705;28;20172;-66
2021/12/28 05:10:21;;;;;;;8.13;7.40;;;8.30;99.90;;;;;;5011285;28;20192;-66
2021/12/28 05:12:49;;;;;;;7.40;6.90;;;8.30;99.90;;;;;;5010948;28;20693;-66
2021/12/28 05:15:16;;;;;;;13.80;7.27;;;8.30;99.90;;;;;;5011509;28;20196;-66
2021/12/28 05:17:41;;;;;;;15.47;6.33;;;8.40;99.90;;;;;;5011465;28;20203;-66
2021/12/28 05:20:08;;;;;;;15.33;7.37;;;8.40;99.90;;;;;;5011265;28;20192;-66
2021/12/28 05:22:33;;;;;;;12.47;7.40;;;8.40;99.90;;;;;;5010883;28;20208;-66
2021/12/28 05:24:59;;;;;;;9.37;6.53;;;8.40;99.90;;;;;;5011513;28;20210;-66
2021/12/28 05:27:25;;;;;;;10.13;7.33;;;8.40;99.90;;;;;;5011206;28;20188;-66
2021/12/28 05:29:51;;;;;;;9.13;7.43;;;8.40;99.90;;;;;;5011076;28;20204;-67
2021/12/28 05:32:17;;;;;;;8.73;6.70;;;8.40;99.90;;;;;;5010819;28;20180;-66
2021/12/28 05:34:42;;;;;;;8.03;7.50;;;8.40;99.90;;;;;;5009974;28;20211;-66
2021/12/28 05:37:08;;;;;;;10.50;8.13;;;8.40;99.90;;;;;;5011071;28;20541;-66
2021/12/28 05:39:35;;;;;;;9.97;8.07;;;8.50;99.90;;;;;;5011175;28;20563;-66
2021/12/28 05:42:02;;;;;;;9.33;8.27;;;8.50;99.90;;;;;;5010678;28;20172;-65
2021/12/28 05:44:27;;;;;;;15.10;8.97;;;8.50;99.90;;;;;;5011047;28;20654;-66
2021/12/28 05:46:54;;;;;;;8.60;7.80;;;8.50;99.90;;;;;;5010904;28;20179;-66
2021/12/28 05:49:21;;;;;;;9.07;8.37;;;8.50;99.90;;;;;;5010916;28;20291;-66
2021/12/28 05:51:47;;;;;;;9.50;8.60;;;8.50;99.90;;;;;;5011096;28;20168;-64
2021/12/28 05:54:13;;;;;;;15.63;8.80;;;8.50;99.90;;;;;;5010338;28;20173;-65
2021/12/28 05:56:39;;;;;;;14.67;9.37;;;8.50;99.90;;;;;;5010239;28;20326;-66
2021/12/28 05:59:05;;;;;;;14.23;9.03;;;8.50;99.90;;;;;;5014371;28;20250;-66
2021/12/28 06:01:31;;;;;;;12.20;9.67;;;8.60;99.90;;;;;;5014890;28;20188;-66
2021/12/28 06:03:56;;;;;;;14.07;10.23;;;8.60;99.90;;;;;;5014118;28;20519;-67
2021/12/28 06:06:22;;;;;;;10.73;9.97;;;8.50;99.90;;;;;;5014388;28;20634;-65
2021/12/28 06:08:47;;;;;;;13.40;10.17;;;8.60;99.90;;;;;;5014454;28;20547;-64
2021/12/28 06:11:14;;;;;;;12.80;10.67;;;8.60;99.90;;;;;;5014274;28;20263;-65
2021/12/28 06:13:40;;;;;;;13.93;11.67;;;8.60;99.90;;;;;;5013951;28;20211;-65
2021/12/28 06:16:07;;;;;;;13.33;12.00;;;8.60;99.90;;;;;;5013974;28;20195;-66
2021/12/28 06:18:33;;;;;;;12.00;10.93;;;8.60;99.90;;;;;;5014167;28;20177;-66
2021/12/28 06:20:59;;;;;;;12.30;11.13;;;8.60;99.90;;;;;;5012996;28;20642;-65
2021/12/28 06:23:25;;;;;;;11.53;10.63;;;8.60;99.90;;;;;;5013887;28;20176;-66
2021/12/28 06:25:51;;;;;;;12.53;11.33;;;8.60;99.90;;;;;;5013849;28;20208;-65
2021/12/28 06:28:17;;;;;;;12.17;10.97;;;8.60;99.90;;;;;;5013985;28;20172;-65
2021/12/28 06:30:42;;;;;;;13.27;10.27;;;8.60;99.90;;;;;;5013527;28;20207;-66
2021/12/28 06:33:08;;;;;;;13.77;11.60;;;8.60;99.90;;;;;;5013780;28;20269;-66
2021/12/28 06:35:34;;;;;;;12.57;11.37;;;8.60;99.90;;;;;;5012336;28;20322;-66
2021/12/28 06:38:00;;;;;;;14.70;10.80;;;8.60;99.90;;;;;;5013909;28;20177;-67
2021/12/28 06:40:26;;;;;;;11.00;10.00;;;8.60;99.90;;;;;;5013199;28;20268;-67
2021/12/28 06:42:52;;;;;;;15.50;11.30;;;8.60;99.90;;;;;;5012325;28;20188;-66
2021/12/28 06:45:18;;;;;;;13.03;9.77;;;8.60;99.90;;;;;;5013794;28;20604;-64
2021/12/28 06:47:43;;;;;;;10.87;9.77;;;8.70;99.90;;;;;;5013434;28;20195;-65
2021/12/28 06:50:09;;;;;;;15.93;9.97;;;8.70;99.90;;;;;;5013983;28;20215;-66
2021/12/28 06:52:35;;;;;;;10.90;9.80;;;8.70;99.90;;;;;;5013162;28;20192;-66
2021/12/28 06:55:02;;;;;;;13.30;10.13;;;8.70;99.90;;;;;;5012033;28;20212;-66
2021/12/28 06:57:28;;;;;;;15.37;10.33;;;8.70;99.90;;;;;;5012944;28;20176;-66
2021/12/28 06:59:53;;;;;;;13.43;10.37;;;8.70;99.90;;;;;;5013099;28;20553;-66
2021/12/28 07:02:19;;;;;;;12.77;10.20;;;8.70;99.90;;;;;;5012944;28;20757;-66
2021/12/28 07:04:45;;;;;;;13.43;9.90;;;8.70;99.90;;;;;;5013164;28;20195;-66
2021/12/28 07:07:12;;;;;;;17.43;10.10;;;8.70;99.90;;;;;;5013119;28;20550;-66
2021/12/28 07:09:37;;;;;;;11.80;10.60;;;8.70;99.90;;;;;;5012678;28;20216;-66
2021/12/28 07:12:04;;;;;;;15.20;10.87;;;8.70;99.90;;;;;;5012913;28;20705;-66
2021/12/28 07:14:29;;;;;;;14.07;12.43;;;8.70;99.90;;;;;;5011154;28;20275;-66
2021/12/28 07:16:56;;;;;;;11.67;10.77;;;8.70;99.90;;;;;;5013156;28;20681;-66
2021/12/28 07:19:22;;;;;;;12.13;10.93;;;8.70;99.90;;;;;;5012757;28;20206;-67
2021/12/28 07:21:47;;;;;;;17.77;11.50;;;8.70;99.90;;;;;;5012385;28;20184;-66
2021/12/28 07:24:13;;;;;;;12.70;11.10;;;8.80;99.90;;;;;;5012117;28;20176;-66
2021/12/28 07:26:40;;;;;;;12.07;10.93;;;8.80;99.90;;;;;;5012643;28;20239;-66
2021/12/28 07:29:06;;;;;;;11.70;10.70;;;8.80;99.90;;;;;;5012512;28;20582;-66
2021/12/28 07:31:32;;;;;;;9.87;8.97;;;8.80;99.90;;;;;;5012666;28;20176;-66
2021/12/28 07:33:59;;;;;;;10.83;9.73;;;8.70;99.90;;;;;;5012657;28;20606;-66
2021/12/28 07:36:24;;;;;;;9.63;8.70;;;8.60;99.90;;;;;;5012261;28;20281;-66
2021/12/28 07:38:50;;;;;;;9.83;8.80;;;8.50;99.90;;;;;;5012484;28;20192;-66
2021/12/28 07:41:16;;;;;;;12.37;9.03;;;8.40;99.90;;;;;;5012407;28;20184;-66
2021/12/28 07:43:42;;;;;;;9.47;8.27;;;8.30;99.90;;;;;;5012206;28;20176;-66
2021/12/28 07:46:07;;;;;;;9.90;8.90;;;8.20;99.90;;;;;;5012358;28;20193;-66
2021/12/28 07:48:33;;;;;;;13.50;8.97;;;8.20;99.90;;;;;;5012036;28;20234;-66
2021/12/28 07:50:59;;;;;;;11.93;7.93;;;8.10;99.90;;;;;;5012377;28;20278;-66
2021/12/28 07:53:25;;;;;;;10.20;8.83;;;8.10;99.90;;;;;;5010593;28;20188;-66
2021/12/28 07:55:50;;;;;;;13.07;9.73;;;8.10;99.90;;;;;;5011740;28;20227;-66
2021/12/28 07:58:16;;;;;;;12.43;9.50;;;8.10;99.90;;;;;;5000464;28;20208;-66
2021/12/28 08:00:42;;;;;;;10.87;9.97;;;8.20;99.90;;;;;;4992290;28;20694;-66
2021/12/28 08:03:08;;;;;;;14.37;10.40;;;8.30;99.90;;;;;;5007242;28;20184;-66
2021/12/28 08:05:35;;;;;;;10.80;9.60;;;8.40;99.90;;;;;;5011789;28;20180;-66
2021/12/28 08:08:02;;;;;;;9.73;8.77;;;8.40;99.90;;;;;;5012060;28;20570;-66
2021/12/28 08:10:29;;;;;;;10.80;9.13;;;8.50;99.90;;;;;;5005577;28;20200;-66
2021/12/28 08:12:56;;;;;;;9.73;8.73;;;8.60;99.90;;;;;;5011206;28;20176;-66
2021/12/28 08:15:24;;;;;;;10.93;9.87;;;8.60;99.90;;;;;;5005714;28;20658;-66
2021/12/28 08:17:50;;;;;;;12.40;9.90;;;8.60;99.90;;;;;;5011297;28;20191;-67
2021/12/28 08:20:17;;;;;;;10.60;8.90;;;8.60;99.90;;;;;;5010842;28;20632;-66
2021/12/28 08:22:44;;;;;;;11.43;8.93;;;8.60;99.90;;;;;;4991907;28;20627;-66
2021/12/28 08:25:12;;;;;;;10.87;9.70;;;8.60;99.90;;;;;;4992381;28;20168;-68
2021/12/28 08:27:39;;;;;;;14.10;9.60;;;8.60;99.90;;;;;;4991123;28;20621;-68
2021/12/28 08:30:07;;;;;;;9.70;8.80;;;8.70;99.90;;;;;;4992348;28;20200;-66
2021/12/28 08:32:33;;;;;;;15.43;9.37;;;8.70;99.90;;;;;;4992118;28;20565;-65
2021/12/28 08:34:59;;;;;;;11.63;10.53;;;8.60;99.90;;;;;;4991030;28;20212;-66
2021/12/28 08:37:26;;;;;;;10.07;9.03;;;8.60;99.90;;;;;;4991169;28;20623;-67
2021/12/28 08:39:53;;;;;;;9.67;8.97;;;8.50;99.90;;;;;;4992248;28;20193;-66
2021/12/28 08:42:19;;;;;;;12.50;9.47;;;8.50;99.90;;;;;;4991613;28;20661;-66
2021/12/28 08:44:45;;;;;;;10.63;9.47;;;8.60;99.90;;;;;;4992002;28;20267;-66
2021/12/28 08:47:10;;;;;;;9.70;8.30;;;8.60;99.90;;;;;;4990836;28;20271;-66
2021/12/28 08:49:36;;;;;;;10.50;9.37;;;8.70;99.90;;;;;;4991711;28;20224;-66
2021/12/28 08:52:02;;;;;;;9.57;8.73;;;8.80;99.90;;;;;;4991620;28;20204;-66
2021/12/28 08:54:28;;;;;;;9.60;8.70;;;8.80;99.90;;;;;;4991844;28;20203;-66
2021/12/28 08:56:53;;;;;;;14.77;8.77;;;8.80;99.90;;;;;;4990798;28;20172;-66
2021/12/28 08:59:19;;;;;;;10.20;9.03;;;8.80;99.90;;;;;;4991675;28;20196;-66
2021/12/28 09:01:47;;;;;;;9.77;8.67;;;8.90;99.90;;;;;;4990647;28;20243;-66
2021/12/28 09:04:13;;;;;;;9.77;9.03;;;8.90;99.90;;;;;;4990408;28;20184;-66
2021/12/28 09:06:39;;;;;;;10.57;8.67;;;8.90;99.90;;;;;;4991824;28;20177;-66
2021/12/28 09:09:04;;;;;;;12.57;8.83;;;8.90;99.90;;;;;;4991899;28;20275;-66
2021/12/28 09:11:30;;;;;;;10.93;9.43;;;8.90;99.90;;;;;;4991814;28;20173;-66
2021/12/28 09:13:56;;;;;;;9.57;8.67;;;8.90;99.90;;;;;;4991602;28;20545;-66
2021/12/28 09:16:22;;;;;;;8.70;7.97;;;8.90;99.90;;;;;;4991524;28;20212;-66
2021/12/28 09:18:49;;;;;;;11.10;8.80;;;9.00;99.90;;;;;;4991728;28;20201;-67
2021/12/28 09:21:15;;;;;;;9.50;8.60;;;9.00;99.90;;;;;;4991786;28;20200;-66
2021/12/28 09:23:40;;;;;;;9.27;8.47;;;9.00;99.90;;;;;;4991567;28;20181;-66
2021/12/28 09:26:06;;;;;;;9.70;8.70;;;9.10;99.90;;;;;;4990583;28;20192;-66
2021/12/28 09:28:32;;;;;;;10.47;9.40;;;9.10;99.90;;;;;;4991528;28;20235;-66
2021/12/28 09:30:58;;;;;;;9.70;8.87;;;9.10;99.90;;;;;;4992856;28;20188;-66
2021/12/28 09:33:24;;;;;;;9.73;8.33;;;9.20;99.90;;;;;;4995185;28;20176;-66
2021/12/28 09:35:51;;;;;;;8.60;7.90;;;9.20;99.90;;;;;;4995310;28;20350;-66
2021/12/28 09:38:19;;;;;;;8.50;7.80;;;9.30;99.90;;;;;;4995232;28;20176;-65
2021/12/28 09:40:46;;;;;;;9.97;8.10;;;9.30;99.90;;;;;;4995056;28;20232;-66
2021/12/28 09:43:12;;;;;;;9.33;8.40;;;9.30;99.90;;;;;;4995122;28;20249;-66
2021/12/28 09:45:38;;;;;;;9.07;8.27;;;9.30;99.90;;;;;;4993869;28;20215;-65
2021/12/28 09:48:05;;;;;;;11.33;9.27;;;9.30;99.90;;;;;;4995166;28;20552;-65
2021/12/28 09:50:31;;;;;;;9.93;9.00;;;9.30;99.90;;;;;;4994660;28;20219;-68
2021/12/28 09:52:57;;;;;;;9.87;8.77;;;9.30;99.90;;;;;;4993678;28;20897;-67
2021/12/28 09:55:24;;;;;;;8.93;8.03;;;9.30;99.90;;;;;;4993658;28;20258;-67
2021/12/28 09:57:51;;;;;;;8.40;7.70;;;9.40;99.90;;;;;;4995084;28;20181;-65
2021/12/28 10:00:20;;;;;;;8.37;7.70;;;9.40;99.90;;;;;;4994983;28;20204;-66
2021/12/28 10:02:46;;;;;;;9.53;7.77;;;9.50;99.90;;;;;;4994615;28;20224;-66
2021/12/28 10:05:15;;;;;;;9.23;8.33;;;9.50;99.90;;;;;;4994840;28;20634;-66
2021/12/28 10:08:10;;;;;;;8.57;7.87;;;9.50;99.90;;;;;;4997508;28;20199;-65
2021/12/28 10:10:39;;;;;;;9.03;8.43;;;9.60;99.90;;;;;;4995550;28;20208;-66
2021/12/28 10:13:17;;;;;;;11.07;9.47;;;9.60;99.90;;;;;;5014085;28;20299;-65
2021/12/28 10:15:45;;;;;;;10.83;9.73;;;9.60;99.90;;;;;;5013252;28;20573;-65
2021/12/28 10:18:12;;;;;;;9.83;8.93;;;9.60;99.90;;;;;;5014167;28;20255;-64
2021/12/28 10:20:44;;;;;;;8.57;7.77;;;9.60;99.90;;;;;;5001726;28;20236;-65
2021/12/28 10:23:13;;;;;;;8.30;7.73;;;9.60;99.90;;;;;;5013865;28;20196;-66
2021/12/28 10:25:42;;;;;;;8.20;7.53;;;9.60;99.90;;;;;;5013525;28;20244;-64
2021/12/28 10:28:13;;;;;;;9.20;8.40;;;9.60;99.90;;;;;;5013268;28;20207;-65
2021/12/28 10:30:42;;;;;;;9.53;8.63;;;9.60;99.90;;;;;;5013898;28;20258;-66
2021/12/28 10:33:12;;;;;;;9.67;8.97;;;9.60;99.90;;;;;;5013288;28;20554;-66
2021/12/28 10:35:46;;;;;;;8.67;8.07;;;9.70;99.90;;;;;;5013426;28;20207;-65
2021/12/28 10:38:16;;;;;;;8.63;7.93;;;9.80;99.90;;;;;;5014030;28;20583;-65
2021/12/28 10:40:55;;;;;;;9.53;8.83;;;9.90;99.90;;;;;;5013289;28;20618;-65
2021/12/28 10:43:33;;;;;;;8.10;7.50;;;9.90;99.90;;;;;;5012971;28;20255;-66
2021/12/28 10:46:11;;;;;;;9.23;8.17;;;10.00;99.90;;;;;;5012263;28;20222;-65
2021/12/28 10:48:40;;;;;;;7.67;7.17;;;9.90;99.90;;;;;;5013117;28;20180;-66
2021/12/28 10:51:10;;;;;;;9.00;8.30;;;9.90;99.90;;;;;;5013523;28;20597;-65
2021/12/28 10:53:52;;;;;;;8.23;7.63;;;10.00;99.90;;;;;;5013244;28;20699;-64
2021/12/28 10:56:18;;;;;;;7.97;7.47;;;9.90;99.90;;;;;;5013207;28;20557;-68
2021/12/28 10:58:47;;;;;;;8.90;8.30;;;9.90;99.90;;;;;;5013248;28;20283;-66
2021/12/28 11:01:16;;;;;;;8.23;7.60;;;9.90;99.90;;;;;;5013124;28;20180;-65
2021/12/28 11:03:44;;;;;;;8.13;7.33;;;10.00;99.90;;;;;;5012376;28;20172;-66
2021/12/28 11:06:15;;;;;;;7.03;6.53;;;10.20;99.90;;;;;;5011872;28;20606;-66
2021/12/28 11:08:43;;;;;;;7.37;6.87;;;10.30;99.90;;;;;;5012511;28;20184;-66
2021/12/28 11:11:13;;;;;;;7.93;7.43;;;10.40;99.90;;;;;;5012750;28;20192;-67
2021/12/28 11:13:39;;;;;;;6.97;6.57;;;10.40;99.90;;;;;;5012456;28;20184;-67
2021/12/28 11:16:08;;;;;;;7.50;7.00;;;10.40;99.90;;;;;;5013170;28;20251;-66
2021/12/28 11:18:45;;;;;;;7.77;7.17;;;10.50;99.90;;;;;;5012438;28;20173;-66
2021/12/28 11:21:11;;;;;;;8.20;7.57;;;10.50;99.90;;;;;;5012775;28;20184;-68
2021/12/28 11:23:37;;;;;;;7.73;7.13;;;10.70;99.90;;;;;;5012795;28;20184;-67
2021/12/28 11:26:16;;;;;;;8.33;7.83;;;10.70;99.90;;;;;;5013177;28;20202;-67
2021/12/28 11:28:51;;;;;;;7.53;7.13;;;10.80;99.90;;;;;;5012495;28;20646;-68
2021/12/28 11:31:21;;;;;;;7.40;6.83;;;10.90;99.90;;;;;;5012943;28;20189;-66
2021/12/28 11:34:11;;;;;;;6.60;6.23;;;10.90;99.90;;;;;;5012454;28;20626;-66
2021/12/28 11:36:44;;;;;;;6.80;6.40;;;10.90;99.90;;;;;;5010566;28;20250;-66
2021/12/28 11:39:14;;;;;;;7.47;6.97;;;10.90;99.90;;;;;;5011331;28;20215;-66
2021/12/28 11:41:40;;;;;;;7.30;6.80;;;10.90;99.90;;;;;;5012318;28;20543;-66
2021/12/28 11:44:07;;;;;;;6.40;6.00;;;10.80;99.90;;;;;;5012005;28;20188;-67
2021/12/28 11:46:34;;;;;;;6.40;6.00;;;10.70;99.90;;;;;;5011529;28;20176;-67
2021/12/28 11:49:00;;;;;;;5.87;5.67;;;10.70;99.90;;;;;;5010897;28;20218;-67
2021/12/28 11:51:27;;;;;;;6.37;6.07;;;10.70;99.90;;;;;;5012456;28;20176;-67
2021/12/28 11:53:55;;;;;;;6.27;5.97;;;10.70;99.90;;;;;;5011098;28;20250;-67
2021/12/28 11:56:30;;;;;;;7.07;6.70;;;10.60;99.90;;;;;;5011385;28;20200;-67
2021/12/28 11:59:00;;;;;;;5.77;5.57;;;10.60;99.90;;;;;;5011460;28;20282;-67
2021/12/28 12:01:50;;;;;;;5.70;5.47;;;10.60;99.90;;;;;;5010228;28;20176;-66
2021/12/28 12:04:34;;;;;;;5.53;5.30;;;10.60;99.90;;;;;;5011735;28;20176;-66
2021/12/28 12:07:05;;;;;;;5.90;5.60;;;10.70;99.90;;;;;;5003504;28;20807;-66
2021/12/28 12:09:33;;;;;;;6.40;6.10;;;10.60;99.90;;;;;;4992547;28;20266;-66
2021/12/28 12:12:16;;;;;;;6.03;5.83;;;10.70;99.90;;;;;;5006224;28;20176;-66
2021/12/28 12:14:51;;;;;;;6.23;5.93;;;10.60;99.90;;;;;;5010688;28;20602;-66
2021/12/28 12:17:34;;;;;;;6.30;5.90;;;10.70;99.90;;;;;;5011962;28;20164;-66
2021/12/28 12:20:02;;;;;;;7.53;7.10;;;10.70;99.90;;;;;;5011796;28;20200;-66
2021/12/28 12:23:03;;;;;;;11.17;9.43;;;10.60;99.90;;;;;;5011421;28;20180;-66
2021/12/28 12:25:45;;;;;;;6.47;6.07;;;10.60;99.90;;;;;;4996860;28;20188;-66
2021/12/28 12:28:12;;;;;;;5.80;5.60;;;10.50;99.90;;;;;;5011584;28;20188;-66
2021/12/28 12:30:51;;;;;;;5.80;5.60;;;10.50;99.90;;;;;;5011372;28;20214;-66
2021/12/28 12:33:17;;;;;;;9.37;8.23;;;10.40;99.90;;;;;;5011591;28;20182;-66
2021/12/28 12:35:49;;;;;;;8.93;7.57;;;10.10;99.90;;;;;;5011914;28;20229;-66
2021/12/28 12:38:14;;;;;;;8.97;8.07;;;9.90;99.90;;;;;;5011580;28;20220;-66
2021/12/28 12:41:04;;;;;;;7.30;6.67;;;9.80;99.90;;;;;;5011144;28;20207;-66
2021/12/28 12:43:39;;;;;;;9.73;7.07;;;9.80;99.90;;;;;;5010164;28;20184;-66
2021/12/28 12:46:20;;;;;;;12.87;7.97;;;9.80;99.90;;;;;;5011179;28;20182;-66
2021/12/28 12:48:45;;;;;;;11.57;6.80;;;9.80;99.90;;;;;;5010713;28;20219;-66
2021/12/28 12:51:20;;;;;;;8.60;7.27;;;9.80;99.90;;;;;;5051718;23;20223;-64